Station: Port Lincoln Airport

  Atmospheric Gas Attenuation - ITU Rec 676-11   --------------- db/100km ---------------
Date Time Temp RH % AH g/m3 Dew Point Wind Direction Speed kph Gust kph Barometer mB Rainfall Since 9am 24GHz 47GHz 76GHz 122GHz 134GHz 241GHz
15 01:50 12.3 94 10.21 11.4 13 15 1019.5 1.2 23.1 29.3 47.7 125.4 123.3 425.3
15 01:39 11.9 93 9.85 10.8 13 13 1019.6 1.2 22.4 28.8 46.4 121.8 118.8 409.5
15 01:30 12 91 9.7 10.6 11 13 1019.6 1.2 22.0 28.5 45.6 119.9 116.5 401.5
15 01:19 12.5 92 10.12 11.2 13 15 1019.7 1.2 22.9 29.1 47.2 124.0 121.7 419.8
15 01:10 12.8 92 10.31 11.5 15 17 1019.7 1.2 23.3 29.3 47.8 125.7 123.9 427.6
15 00:59 12.9 92 10.37 11.6 17 20 1019.7 1.2 23.4 29.4 48.0 126.3 124.6 430.0
15 00:50 13 91 10.32 11.6 22 24 1019.6 1.2 23.3 29.3 47.7 125.5 123.7 427.0
15 00:39 13.3 90 10.4 11.7 17 19 1019.5 1.2 23.5 29.3 47.9 125.9 124.4 429.2
15 00:30 13 91 10.32 11.6 15 19 1019.4 1.2 23.3 29.3 47.7 125.5 123.7 426.9
15 00:20 13.2 91 10.45 11.8 13 15 1019.4 1.2 23.6 29.4 48.2 126.7 125.3 432.3
15 00:10 13.3 90 10.4 11.7 15 17 1019.4 1.2 23.5 29.3 47.9 125.9 124.4 429.2
15 00:00 13.4 90 10.46 11.8 17 22 1019.3 1.2 23.6 29.4 48.1 126.4 125.1 431.6
14 23:50 13.5 90 10.53 11.9 19 20 1019.2 1.2 23.7 29.5 48.3 127.1 125.9 434.5
14 23:40 13.4 91 10.58 12 20 22 1019.1 1.2 23.8 29.6 48.6 127.8 126.8 437.5
14 23:30 13.3 91 10.51 11.9 20 26 1018.9 1.2 23.7 29.5 48.3 127.1 125.9 434.5
14 23:20 13.3 91 10.51 11.9 22 26 1019 1.2 23.7 29.5 48.3 127.1 125.9 434.6
14 23:10 13.2 92 10.56 11.9 22 24 1019 1.2 23.8 29.6 48.6 127.9 126.8 437.6
14 23:00 13 93 10.55 11.9 20 24 1018.9 1.2 23.8 29.7 48.7 128.1 127.0 438.2
14 22:50 13.2 92 10.56 11.9 20 24 1018.8 1.2 23.8 29.6 48.6 127.9 126.8 437.5
14 22:40 13.3 93 10.75 12.2 22 24 1018.8 1.2 24.2 29.9 49.4 129.9 129.3 446.5
14 22:30 13.1 94 10.73 12.2 20 24 1018.7 1.2 24.2 29.9 49.4 130.0 129.4 446.6
14 22:20 12.8 93 10.42 11.7 20 22 1018.6 1.2 23.5 29.5 48.2 126.9 125.4 432.7
14 22:10 13.3 93 10.75 12.2 26 30 1018.6 1.2 24.2 29.9 49.4 129.9 129.3 446.4
14 22:00 13.4 92 10.7 12.1 22 32 1018.7 1.2 24.1 29.8 49.1 129.2 128.4 443.4
14 21:50 13.5 92 10.76 12.2 19 24 1018.8 1.2 24.2 29.9 49.3 129.7 129.1 445.9
14 21:40 13.6 90 10.59 12 20 22 1018.7 1.2 23.9 29.5 48.5 127.5 126.5 436.7
14 21:30 13.8 90 10.72 12.2 17 22 1018.5 1.2 24.1 29.7 48.9 128.7 128.0 442.0
14 21:20 13.5 89 10.41 11.7 17 19 1018.5 1.2 23.5 29.2 47.8 125.6 124.1 428.3
14 21:09 13.3 89 10.28 11.5 15 19 1018.3 1.2 23.2 29.1 47.3 124.4 122.6 422.9
14 21:00 13.5 89 10.41 11.7 19 26 1018.2 1.2 23.5 29.2 47.7 125.6 124.1 428.2
14 20:49 13.5 90 10.53 11.9 19 20 1018.1 1.2 23.7 29.4 48.3 126.9 125.8 434.1
14 20:40 13.2 90 10.33 11.6 11 13 1018 1.2 23.3 29.2 47.6 125.1 123.4 425.8
14 20:30 13.4 90 10.46 11.8 13 20 1017.9 1.2 23.6 29.3 48.0 126.3 124.9 431.1
14 20:20 13.4 91 10.58 12 11 13 1017.8 1.2 23.9 29.5 48.5 127.7 126.6 437.1
14 20:09 13.7 90 10.66 12.1 17 17 1017.7 1.2 24.0 29.6 48.7 128.1 127.3 439.3
14 20:00 13.8 90 10.72 12.2 19 24 1017.6 1.2 24.1 29.6 48.9 128.6 127.9 441.7
14 19:49 13.7 91 10.78 12.3 19 20 1017.4 1.2 24.3 29.8 49.2 129.4 128.9 445.2
14 19:40 13.5 91 10.64 12.1 19 22 1017.3 1.2 24.0 29.6 48.7 128.1 127.3 439.3
14 19:30 13.4 91 10.58 12 17 20 1017.3 1.2 23.9 29.5 48.5 127.6 126.6 436.9
14 19:20 13.5 91 10.64 12.1 19 20 1017.1 1.2 24.0 29.6 48.7 128.1 127.2 439.3
14 19:10 13.6 90 10.59 12 19 20 1017 1.2 23.9 29.4 48.4 127.3 126.4 436.2
14 19:00 13.6 90 10.59 12 17 20 1017.1 1.2 23.9 29.5 48.4 127.4 126.4 436.2
14 18:50 13.5 90 10.53 11.9 15 17 1017 1.2 23.7 29.4 48.2 126.8 125.7 433.7
14 18:40 13.7 90 10.66 12.1 19 20 1016.8 1.2 24.0 29.5 48.6 128.0 127.2 439.0
14 18:30 13.9 89 10.67 12.1 19 24 1016.7 1.2 24.0 29.5 48.5 127.7 127.0 438.3
14 18:20 14.1 89 10.8 12.3 19 20 1016.5 1.2 24.3 29.6 49.0 128.9 128.5 443.6
14 18:10 14.1 90 10.92 12.5 19 20 1016.4 1.2 24.5 29.8 49.5 130.3 130.2 449.5
14 18:00 14 90 10.86 12.4 19 26 1016.3 1.2 24.4 29.8 49.3 129.7 129.5 447.1
14 17:50 14.2 91 11.11 12.8 20 24 1016 1.2 24.9 30.1 50.2 132.3 132.7 458.3
14 17:40 14.4 90 11.13 12.8 19 20 1015.9 1.2 25.0 30.1 50.2 132.1 132.6 458.1
14 17:30 14.3 90 11.06 12.7 20 28 1015.8 1.2 24.8 30.0 49.9 131.5 131.8 455.2
14 17:20 14.4 89 11 12.6 24 28 1015.7 1.2 24.7 29.8 49.6 130.6 130.7 451.5
14 17:10 15.4 84 11.04 12.7 26 33 1015.5 1 24.7 29.6 49.1 129.4 129.6 447.6
14 17:00 15.5 85 11.24 13 17 24 1015.3 1 25.1 29.9 49.9 131.5 132.2 456.8
14 16:50 15.4 85 11.17 12.9 20 26 1015.1 1 25.0 29.8 49.7 130.8 131.4 453.9
14 16:39 15.2 87 11.29 13.1 20 24 1015 1 25.3 30.0 50.3 132.5 133.4 461.0
14 16:30 15.6 85 11.3 13.1 20 26 1014.9 1 25.3 29.9 50.1 131.9 132.8 459.1
14 16:19 15.4 85 11.17 12.9 15 20 1014.7 1 25.0 29.8 49.7 130.8 131.3 453.7
14 16:10 15.4 85 11.17 12.9 19 20 1014.6 1 25.0 29.7 49.7 130.7 131.3 453.7
14 15:59 15.5 85 11.24 13 24 28 1014.4 1 25.1 29.8 49.9 131.4 132.1 456.5
14 15:50 16.4 76 10.61 12.2 32 37 1014.1 1 23.7 28.4 46.6 122.7 121.8 420.7
14 15:39 16.9 75 10.79 12.4 30 37 1014 1 24.1 28.6 47.1 123.9 123.5 426.5
14 15:30 16.6 74 10.45 12 32 43 1013.8 1 23.4 28.1 45.8 120.6 119.3 411.9
14 15:19 16.9 72 10.36 11.8 28 35 1013.6 1 23.2 27.8 45.3 119.1 117.6 406.0
14 15:10 17 75 10.85 12.5 26 32 1013.6 1 24.2 28.6 47.3 124.4 124.1 428.7
14 15:00 16.5 74 10.39 11.9 28 39 1013.5 1 23.3 28.0 45.6 120.1 118.6 409.5
14 14:50 16.6 73 10.31 11.7 24 30 1013.5 1 23.1 27.9 45.3 119.0 117.4 405.2
14 14:40 17.3 73 10.75 12.4 22 28 1013.5 1 24.0 28.4 46.7 122.8 122.2 422.3
14 14:30 16.7 73 10.37 11.8 32 43 1013.3 1 23.2 27.9 45.4 119.5 118.0 407.4
14 14:20 17.1 72 10.48 12 30 35 1013.3 1 23.4 28.0 45.7 120.1 118.9 410.5
14 14:10 17.5 71 10.58 12.2 28 33 1013.2 1 23.6 28.0 45.8 120.6 119.6 413.1
14 14:00 17.7 73 11.01 12.8 28 44 1013.2 1 24.5 28.7 47.5 125.0 125.1 432.3
14 13:50 17.2 74 10.84 12.5 24 35 1013.1 1 24.2 28.5 47.1 123.9 123.6 427.0
14 13:40 17.3 76 11.2 13 28 30 1013.1 1 25.0 29.1 48.5 127.7 128.3 443.6
14 13:30 17 78 11.29 13.1 26 35 1013.2 1 25.2 29.4 49.1 129.3 130.1 449.8
14 13:20 16.8 83 11.87 13.9 32 35 1013.2 1 26.4 30.4 51.7 136.2 138.6 479.3
14 13:10 16.7 87 12.36 14.5 24 28 1013.2 1 27.5 31.3 53.9 142.1 145.8 504.4
14 13:00 16.2 91 12.55 14.7 24 33 1013.3 1 27.9 31.8 55.1 145.3 149.5 517.4
14 12:50 15.7 83 11.1 12.8 32 41 1013.4 1 24.8 29.5 49.1 129.3 129.7 448.1
14 12:40 17.4 82 12.15 14.3 32 37 1013.4 0.4 27.0 30.7 52.5 138.4 141.5 489.5
14 12:30 17.1 86 12.52 14.7 26 35 1013.6 0.4 27.8 31.5 54.3 143.3 147.4 510.0
14 12:20 16.1 85 11.65 13.6 28 32 1013.6 0.4 26.0 30.3 51.2 134.9 136.8 472.9
14 12:09 16.2 87 12 14 20 24 1013.8 0.4 26.7 30.9 52.7 138.9 141.6 489.8
14 12:00 16 87 11.85 13.8 22 30 1013.8 0.4 26.4 30.7 52.2 137.5 139.8 483.6
14 11:49 16.2 89 12.27 14.4 24 33 1013.9 0.4 27.3 31.4 53.9 142.0 145.5 503.5
14 11:40 16.7 85 12.08 14.2 26 33 1013.8 0.2 26.9 30.8 52.7 138.9 141.8 490.6
14 11:29 18.1 78 12.05 14.2 28 35 1013.8 0.2 26.7 30.3 51.6 136.1 138.8 480.3
14 11:20 18 82 12.59 14.9 26 35 1013.9 0.2 27.9 31.3 54.0 142.5 146.7 507.7
14 11:09 17.4 82 12.15 14.3 32 35 1013.9 0.2 27.0 30.7 52.5 138.5 141.5 489.7
14 11:00 17.1 83 12.08 14.2 28 39 1013.9 0.2 26.8 30.7 52.4 138.2 141.1 488.1
14 10:49 16.6 83 11.72 13.7 30 33 1013.9 0.2 26.1 30.3 51.2 134.9 136.9 473.4
14 10:40 16.3 87 12.07 14.1 24 28 1013.9 0.2 26.9 31.0 52.9 139.5 142.4 492.7
14 10:30 16 87 11.85 13.8 28 37 1013.8 0 26.4 30.7 52.2 137.5 139.8 483.6
14 10:20 15.3 91 11.88 13.8 20 24 1013.9 0 26.5 31.0 52.8 139.1 141.6 489.6
14 10:10 14.6 89 11.14 12.8 24 28 1013.9 0 25.0 29.9 50.0 131.7 132.2 456.7
14 10:00 14.4 89 11 12.6 20 30 1014 0 24.7 29.8 49.5 130.4 130.5 450.9
14 09:50 14 88 10.61 12 19 22 1014.1 0 23.9 29.2 48.1 126.6 125.7 433.9
14 09:40 14 85 10.25 11.5 19 24 1014 0 23.1 28.6 46.5 122.4 120.6 416.2
14 09:30 13.8 84 10.01 11.1 22 26 1014 0 22.6 28.3 45.6 120.0 117.6 405.6
14 09:20 13.8 81 9.65 10.6 22 26 1013.8 0 21.8 27.6 44.1 116.0 112.6 388.1

Last Refresh: 15-Jun-2024 01:53:54

Bureau of Meteorology